sensor_id;sensor_type;location;lat;lon;timestamp;pressure;altitude;pressure_sealevel;temperature;humidity
74529;BME280;63009;52.584;5.932;2023-08-20T00:01:21;102013.38;;;16.61;100.00
74529;BME280;63009;52.584;5.932;2023-08-20T00:03:48;102022.50;;;16.57;100.00
74529;BME280;63009;52.584;5.932;2023-08-20T00:06:14;102021.97;;;16.52;100.00
74529;BME280;63009;52.584;5.932;2023-08-20T00:08:39;102030.94;;;16.51;100.00
74529;BME280;63009;52.584;5.932;2023-08-20T00:11:04;102031.03;;;16.49;100.00
74529;BME280;63009;52.584;5.932;2023-08-20T00:13:30;102040.84;;;16.49;100.00
74529;BME280;63009;52.584;5.932;2023-08-20T00:15:56;102036.53;;;16.46;100.00
74529;BME280;63009;52.584;5.932;2023-08-20T00:18:21;102029.59;;;16.44;100.00
74529;BME280;63009;52.584;5.932;2023-08-20T00:20:47;102018.06;;;16.43;100.00
74529;BME280;63009;52.584;5.932;2023-08-20T00:23:13;102032.06;;;16.47;100.00
74529;BME280;63009;52.584;5.932;2023-08-20T00:25:38;102041.13;;;16.44;100.00
74529;BME280;63009;52.584;5.932;2023-08-20T00:28:04;102040.16;;;16.45;100.00
74529;BME280;63009;52.584;5.932;2023-08-20T00:30:30;102033.00;;;16.46;100.00
74529;BME280;63009;52.584;5.932;2023-08-20T00:32:55;102041.00;;;16.60;100.00
74529;BME280;63009;52.584;5.932;2023-08-20T00:35:21;102038.31;;;16.60;100.00
74529;BME280;63009;52.584;5.932;2023-08-20T00:37:47;102029.50;;;16.45;100.00
74529;BME280;63009;52.584;5.932;2023-08-20T00:40:12;102047.59;;;16.54;100.00
74529;BME280;63009;52.584;5.932;2023-08-20T00:42:37;102049.81;;;16.48;100.00
74529;BME280;63009;52.584;5.932;2023-08-20T00:45:04;102017.53;;;16.24;100.00
74529;BME280;63009;52.584;5.932;2023-08-20T00:47:29;102045.06;;;16.39;100.00
74529;BME280;63009;52.584;5.932;2023-08-20T00:49:54;102053.16;;;16.37;100.00
74529;BME280;63009;52.584;5.932;2023-08-20T00:52:20;102031.25;;;16.18;100.00
74529;BME280;63009;52.584;5.932;2023-08-20T00:54:47;102064.41;;;16.28;100.00
74529;BME280;63009;52.584;5.932;2023-08-20T00:57:18;102067.38;;;16.23;100.00
74529;BME280;63009;52.584;5.932;2023-08-20T00:59:44;102062.31;;;16.19;100.00
74529;BME280;63009;52.584;5.932;2023-08-20T01:02:12;102066.97;;;16.15;100.00
74529;BME280;63009;52.584;5.932;2023-08-20T01:04:37;102069.06;;;16.10;100.00
74529;BME280;63009;52.584;5.932;2023-08-20T01:12:29;102067.25;;;16.11;100.00
74529;BME280;63009;52.584;5.932;2023-08-20T01:14:54;102052.97;;;16.12;100.00
74529;BME280;63009;52.584;5.932;2023-08-20T01:17:20;102061.72;;;16.14;100.00
74529;BME280;63009;52.584;5.932;2023-08-20T01:19:45;102052.97;;;16.12;100.00
74529;BME280;63009;52.584;5.932;2023-08-20T01:22:22;102074.03;;;16.16;100.00
74529;BME280;63009;52.584;5.932;2023-08-20T01:25:18;102076.53;;;16.19;100.00
74529;BME280;63009;52.584;5.932;2023-08-20T01:28:17;102084.53;;;16.19;100.00
74529;BME280;63009;52.584;5.932;2023-08-20T01:30:44;102071.00;;;16.08;100.00
74529;BME280;63009;52.584;5.932;2023-08-20T01:33:10;102085.28;;;16.21;100.00
74529;BME280;63009;52.584;5.932;2023-08-20T01:35:37;102083.56;;;16.20;100.00
74529;BME280;63009;52.584;5.932;2023-08-20T01:38:02;102078.41;;;16.17;100.00
74529;BME280;63009;52.584;5.932;2023-08-20T01:40:28;102088.31;;;16.15;100.00
74529;BME280;63009;52.584;5.932;2023-08-20T01:42:53;102093.66;;;16.15;100.00
74529;BME280;63009;52.584;5.932;2023-08-20T01:45:18;102090.03;;;16.16;100.00
74529;BME280;63009;52.584;5.932;2023-08-20T01:47:44;102099.84;;;16.16;100.00
74529;BME280;63009;52.584;5.932;2023-08-20T01:50:09;102105.56;;;16.10;100.00
74529;BME280;63009;52.584;5.932;2023-08-20T01:52:35;102123.28;;;16.11;100.00
74529;BME280;63009;52.584;5.932;2023-08-20T01:55:00;102103.75;;;16.10;100.00
74529;BME280;63009;52.584;5.932;2023-08-20T01:57:25;102114.03;;;16.16;100.00
74529;BME280;63009;52.584;5.932;2023-08-20T01:59:50;102117.28;;;16.21;100.00
74529;BME280;63009;52.584;5.932;2023-08-20T02:02:16;102117.84;;;16.26;100.00
74529;BME280;63009;52.584;5.932;2023-08-20T02:04:41;102107.28;;;16.25;100.00
74529;BME280;63009;52.584;5.932;2023-08-20T02:07:06;102110.41;;;16.31;100.00
74529;BME280;63009;52.584;5.932;2023-08-20T02:09:32;102113.88;;;16.33;100.00
74529;BME280;63009;52.584;5.932;2023-08-20T02:11:57;102098.22;;;16.27;100.00
74529;BME280;63009;52.584;5.932;2023-08-20T02:14:22;102116.25;;;16.38;100.00
74529;BME280;63009;52.584;5.932;2023-08-20T02:16:48;102128.81;;;16.36;100.00
74529;BME280;63009;52.584;5.932;2023-08-20T02:19:13;102122.44;;;16.24;100.00
74529;BME280;63009;52.584;5.932;2023-08-20T02:21:39;102119.09;;;16.21;100.00
74529;BME280;63009;52.584;5.932;2023-08-20T02:24:05;102130.78;;;16.18;100.00
74529;BME280;63009;52.584;5.932;2023-08-20T02:26:30;102112.50;;;16.12;100.00
74529;BME280;63009;52.584;5.932;2023-08-20T02:28:56;102095.84;;;16.09;100.00
74529;BME280;63009;52.584;5.932;2023-08-20T02:31:21;102101.84;;;16.12;100.00
74529;BME280;63009;52.584;5.932;2023-08-20T02:33:46;102081.25;;;16.14;100.00
74529;BME280;63009;52.584;5.932;2023-08-20T02:36:12;102079.34;;;16.16;100.00
74529;BME280;63009;52.584;5.932;2023-08-20T02:38:37;102093.00;;;16.26;100.00
74529;BME280;63009;52.584;5.932;2023-08-20T02:41:02;102083.72;;;16.17;100.00
74529;BME280;63009;52.584;5.932;2023-08-20T02:43:28;102083.84;;;16.16;100.00
74529;BME280;63009;52.584;5.932;2023-08-20T02:45:54;102084.53;;;16.19;100.00
74529;BME280;63009;52.584;5.932;2023-08-20T02:48:19;102076.53;;;16.19;100.00
74529;BME280;63009;52.584;5.932;2023-08-20T02:50:45;102083.06;;;16.28;100.00
74529;BME280;63009;52.584;5.932;2023-08-20T02:53:10;102085.84;;;16.26;100.00
74529;BME280;63009;52.584;5.932;2023-08-20T02:55:35;102070.41;;;16.17;100.00
74529;BME280;63009;52.584;5.932;2023-08-20T02:58:03;102079.94;;;16.21;100.00
74529;BME280;63009;52.584;5.932;2023-08-20T03:00:29;102071.34;;;16.16;100.00
74529;BME280;63009;52.584;5.932;2023-08-20T03:02:55;102072.09;;;16.18;100.00
74529;BME280;63009;52.584;5.932;2023-08-20T03:05:20;102083.84;;;16.16;100.00
74529;BME280;63009;52.584;5.932;2023-08-20T03:07:45;102081.25;;;16.14;100.00
74529;BME280;63009;52.584;5.932;2023-08-20T03:10:11;102084.31;;;16.08;100.00
74529;BME280;63009;52.584;5.932;2023-08-20T03:12:37;102061.44;;;16.04;100.00
74529;BME280;63009;52.584;5.932;2023-08-20T03:15:02;102075.47;;;16.08;100.00
74529;BME280;63009;52.584;5.932;2023-08-20T03:17:28;102083.16;;;15.98;100.00
74529;BME280;63009;52.584;5.932;2023-08-20T03:19:55;102090.41;;;15.96;100.00
74529;BME280;63009;52.584;5.932;2023-08-20T03:22:21;102064.69;;;15.81;100.00
74529;BME280;63009;52.584;5.932;2023-08-20T03:24:46;102059.59;;;15.76;100.00
74529;BME280;63009;52.584;5.932;2023-08-20T03:27:11;102082.56;;;15.79;100.00
74529;BME280;63009;52.584;5.932;2023-08-20T03:29:37;102073.13;;;15.73;100.00
74529;BME280;63009;52.584;5.932;2023-08-20T03:32:02;102083.69;;;15.74;100.00
74529;BME280;63009;52.584;5.932;2023-08-20T03:34:28;102071.59;;;15.69;100.00
74529;BME280;63009;52.584;5.932;2023-08-20T03:36:53;102075.88;;;15.71;100.00
74529;BME280;63009;52.584;5.932;2023-08-20T03:39:18;102077.59;;;15.72;100.00
74529;BME280;63009;52.584;5.932;2023-08-20T03:41:44;102072.00;;;15.77;100.00
74529;BME280;63009;52.584;5.932;2023-08-20T03:44:10;102086.44;;;15.73;100.00
74529;BME280;63009;52.584;5.932;2023-08-20T03:46:35;102075.13;;;15.69;100.00
74529;BME280;63009;52.584;5.932;2023-08-20T03:49:00;102098.16;;;15.70;100.00
74529;BME280;63009;52.584;5.932;2023-08-20T03:51:25;102099.56;;;15.62;100.00
74529;BME280;63009;52.584;5.932;2023-08-20T03:53:51;102110.22;;;15.62;100.00
74529;BME280;63009;52.584;5.932;2023-08-20T03:56:16;102103.69;;;15.67;100.00
74529;BME280;63009;52.584;5.932;2023-08-20T03:58:41;102109.78;;;15.69;100.00
74529;BME280;63009;52.584;5.932;2023-08-20T04:01:06;102102.91;;;15.65;100.00
74529;BME280;63009;52.584;5.932;2023-08-20T04:03:32;102103.09;;;15.62;100.00
74529;BME280;63009;52.584;5.932;2023-08-20T04:05:57;102109.00;;;15.67;100.00
74529;BME280;63009;52.584;5.932;2023-08-20T04:08:22;102100.25;;;15.65;100.00
74529;BME280;63009;52.584;5.932;2023-08-20T04:10:48;102110.53;;;15.71;100.00
74529;BME280;63009;52.584;5.932;2023-08-20T04:13:13;102107.88;;;15.71;100.00
74529;BME280;63009;52.584;5.932;2023-08-20T04:15:41;102110.25;;;15.76;100.00
74529;BME280;63009;52.584;5.932;2023-08-20T04:18:07;102104.91;;;15.76;100.00
74529;BME280;63009;52.584;5.932;2023-08-20T04:20:33;102111.13;;;15.77;100.00
74529;BME280;63009;52.584;5.932;2023-08-20T04:22:58;102089.03;;;15.74;100.00
74529;BME280;63009;52.584;5.932;2023-08-20T04:25:24;102093.88;;;15.68;100.00
74529;BME280;63009;52.584;5.932;2023-08-20T04:27:49;102115.00;;;15.71;100.00
74529;BME280;63009;52.584;5.932;2023-08-20T04:30:14;102117.38;;;15.76;100.00
74529;BME280;63009;52.584;5.932;2023-08-20T04:32:39;102118.44;;;15.73;100.00
74529;BME280;63009;52.584;5.932;2023-08-20T04:35:05;102118.72;;;15.68;100.00
74529;BME280;63009;52.584;5.932;2023-08-20T04:37:31;102123.88;;;15.71;100.00
74529;BME280;63009;52.584;5.932;2023-08-20T04:39:56;102128.25;;;15.72;100.00
74529;BME280;63009;52.584;5.932;2023-08-20T04:42:21;102121.00;;;15.74;100.00
74529;BME280;63009;52.584;5.932;2023-08-20T04:44:47;102116.06;;;15.68;100.00
74529;BME280;63009;52.584;5.932;2023-08-20T04:47:12;102120.53;;;15.68;100.00
74529;BME280;63009;52.584;5.932;2023-08-20T04:49:40;102126.25;;;15.76;100.00
74529;BME280;63009;52.584;5.932;2023-08-20T04:52:05;102128.84;;;15.78;100.00
74529;BME280;63009;52.584;5.932;2023-08-20T04:54:30;102120.44;;;15.69;100.00
74529;BME280;63009;52.584;5.932;2023-08-20T04:56:56;102129.09;;;15.73;100.00
74529;BME280;63009;52.584;5.932;2023-08-20T04:59:21;102136.91;;;15.76;100.00
74529;BME280;63009;52.584;5.932;2023-08-20T05:01:46;102143.91;;;15.79;100.00
74529;BME280;63009;52.584;5.932;2023-08-20T05:04:12;102150.94;;;15.80;100.00
74529;BME280;63009;52.584;5.932;2023-08-20T05:06:37;102143.13;;;15.77;100.00
74529;BME280;63009;52.584;5.932;2023-08-20T05:09:02;102147.13;;;15.84;100.00
74529;BME280;63009;52.584;5.932;2023-08-20T05:11:28;102153.13;;;15.87;100.00
74529;BME280;63009;52.584;5.932;2023-08-20T05:13:56;102150.13;;;15.93;100.00
74529;BME280;63009;52.584;5.932;2023-08-20T05:16:22;102149.63;;;16.01;100.00
74529;BME280;63009;52.584;5.932;2023-08-20T05:18:47;102155.50;;;16.22;100.00
74529;BME280;63009;52.584;5.932;2023-08-20T05:21:12;102154.44;;;16.39;100.00
74529;BME280;63009;52.584;5.932;2023-08-20T05:23:39;102157.50;;;16.61;100.00
74529;BME280;63009;52.584;5.932;2023-08-20T05:26:06;102166.75;;;16.84;100.00
74529;BME280;63009;52.584;5.932;2023-08-20T05:28:31;102153.78;;;16.92;100.00
74529;BME280;63009;52.584;5.932;2023-08-20T05:30:56;102165.41;;;17.05;100.00
74529;BME280;63009;52.584;5.932;2023-08-20T05:33:22;102153.81;;;17.19;100.00
74529;BME280;63009;52.584;5.932;2023-08-20T05:35:48;102154.22;;;17.40;100.00
74529;BME280;63009;52.584;5.932;2023-08-20T05:38:13;102157.41;;;17.45;100.00
74529;BME280;63009;52.584;5.932;2023-08-20T05:40:39;102160.03;;;17.59;100.00
74529;BME280;63009;52.584;5.932;2023-08-20T05:43:04;102140.63;;;17.70;100.00
74529;BME280;63009;52.584;5.932;2023-08-20T05:45:29;102155.44;;;17.88;100.00
74529;BME280;63009;52.584;5.932;2023-08-20T05:47:54;102147.84;;;17.95;100.00
74529;BME280;63009;52.584;5.932;2023-08-20T05:50:20;102162.41;;;18.29;100.00
74529;BME280;63009;52.584;5.932;2023-08-20T05:52:45;102157.06;;;18.42;100.00
74529;BME280;63009;52.584;5.932;2023-08-20T05:55:10;102147.94;;;18.57;100.00
74529;BME280;63009;52.584;5.932;2023-08-20T05:57:36;102167.03;;;18.78;100.00
74529;BME280;63009;52.584;5.932;2023-08-20T06:00:03;102157.88;;;18.93;100.00
74529;BME280;63009;52.584;5.932;2023-08-20T06:02:29;102159.69;;;18.92;100.00
74529;BME280;63009;52.584;5.932;2023-08-20T06:04:54;102162.41;;;19.16;100.00
74529;BME280;63009;52.584;5.932;2023-08-20T06:07:20;102161.16;;;19.33;100.00
74529;BME280;63009;52.584;5.932;2023-08-20T06:09:45;102161.09;;;19.46;100.00
74529;BME280;63009;52.584;5.932;2023-08-20T06:12:11;102157.31;;;19.61;100.00
74529;BME280;63009;52.584;5.932;2023-08-20T06:14:36;102168.88;;;19.85;100.00
74529;BME280;63009;52.584;5.932;2023-08-20T06:17:01;102166.84;;;20.00;100.00
74529;BME280;63009;52.584;5.932;2023-08-20T06:19:27;102158.78;;;20.00;100.00
74529;BME280;63009;52.584;5.932;2023-08-20T06:21:52;102171.97;;;20.14;100.00
74529;BME280;63009;52.584;5.932;2023-08-20T06:24:18;102161.47;;;20.11;100.00
74529;BME280;63009;52.584;5.932;2023-08-20T06:26:43;102166.50;;;20.27;100.00
74529;BME280;63009;52.584;5.932;2023-08-20T06:29:10;102161.44;;;20.47;99.61
74529;BME280;63009;52.584;5.932;2023-08-20T06:31:35;102166.31;;;20.53;100.00
74529;BME280;63009;52.584;5.932;2023-08-20T06:34:00;102170.69;;;20.65;98.45
74529;BME280;63009;52.584;5.932;2023-08-20T06:36:26;102168.88;;;20.65;98.08
74529;BME280;63009;52.584;5.932;2023-08-20T06:38:51;102172.78;;;20.84;97.93
74529;BME280;63009;52.584;5.932;2023-08-20T06:41:17;102173.50;;;20.74;97.25
74529;BME280;63009;52.584;5.932;2023-08-20T06:43:42;102168.09;;;21.08;97.46
74529;BME280;63009;52.584;5.932;2023-08-20T06:46:08;102174.19;;;21.10;96.40
74529;BME280;63009;52.584;5.932;2023-08-20T06:48:34;102173.19;;;21.33;95.86
74529;BME280;63009;52.584;5.932;2023-08-20T06:51:13;102161.16;;;21.49;93.86
74529;BME280;63009;52.584;5.932;2023-08-20T06:53:39;102180.63;;;21.94;93.00
74529;BME280;63009;52.584;5.932;2023-08-20T06:56:06;102181.94;;;22.11;92.23
74529;BME280;63009;52.584;5.932;2023-08-20T06:58:31;102183.09;;;22.39;90.73
74529;BME280;63009;52.584;5.932;2023-08-20T07:00:56;102182.50;;;22.35;89.70
74529;BME280;63009;52.584;5.932;2023-08-20T07:03:32;102185.19;;;22.35;89.98
74529;BME280;63009;52.584;5.932;2023-08-20T07:05:57;102197.56;;;22.68;88.18
74529;BME280;63009;52.584;5.932;2023-08-20T07:08:23;102193.97;;;22.89;87.31
74529;BME280;63009;52.584;5.932;2023-08-20T07:10:48;102203.34;;;22.94;86.64
74529;BME280;63009;52.584;5.932;2023-08-20T07:13:13;102200.91;;;23.31;87.25
74529;BME280;63009;52.584;5.932;2023-08-20T07:15:38;102190.00;;;23.52;85.86
74529;BME280;63009;52.584;5.932;2023-08-20T07:18:04;102188.63;;;23.67;84.14
74529;BME280;63009;52.584;5.932;2023-08-20T07:20:29;102189.75;;;23.75;82.25
74529;BME280;63009;52.584;5.932;2023-08-20T07:22:54;102182.34;;;23.86;82.48
74529;BME280;63009;52.584;5.932;2023-08-20T07:25:20;102167.44;;;23.82;82.00
74529;BME280;63009;52.584;5.932;2023-08-20T07:27:46;102193.41;;;24.03;79.83
74529;BME280;63009;52.584;5.932;2023-08-20T07:30:11;102191.84;;;24.10;80.60
74529;BME280;63009;52.584;5.932;2023-08-20T07:32:37;102191.25;;;24.06;81.16
74529;BME280;63009;52.584;5.932;2023-08-20T07:35:02;102195.38;;;24.20;82.00
74529;BME280;63009;52.584;5.932;2023-08-20T07:37:27;102193.06;;;24.44;80.42
74529;BME280;63009;52.584;5.932;2023-08-20T07:39:52;102200.22;;;24.73;79.98
74529;BME280;63009;52.584;5.932;2023-08-20T07:42:18;102203.44;;;24.86;78.26
74529;BME280;63009;52.584;5.932;2023-08-20T07:44:43;102205.84;;;25.16;77.57
74529;BME280;63009;52.584;5.932;2023-08-20T07:47:08;102203.50;;;25.04;76.19
74529;BME280;63009;52.584;5.932;2023-08-20T07:49:33;102205.97;;;25.25;75.51
74529;BME280;63009;52.584;5.932;2023-08-20T07:51:59;102209.69;;;25.24;74.59
74529;BME280;63009;52.584;5.932;2023-08-20T07:54:24;102217.31;;;25.28;74.85
74529;BME280;63009;52.584;5.932;2023-08-20T07:56:49;102213.41;;;25.58;74.55
74529;BME280;63009;52.584;5.932;2023-08-20T07:59:15;102223.53;;;25.56;74.12
74529;BME280;63009;52.584;5.932;2023-08-20T08:01:40;102212.91;;;25.72;73.80
74529;BME280;63009;52.584;5.932;2023-08-20T08:04:05;102207.22;;;26.01;72.40
74529;BME280;63009;52.584;5.932;2023-08-20T08:06:30;102222.63;;;26.19;71.28
74529;BME280;63009;52.584;5.932;2023-08-20T08:08:56;102207.94;;;26.47;73.41
74529;BME280;63009;52.584;5.932;2023-08-20T08:11:21;102232.50;;;26.80;68.61
74529;BME280;63009;52.584;5.932;2023-08-20T08:13:46;102232.34;;;26.81;68.43
74529;BME280;63009;52.584;5.932;2023-08-20T08:16:11;102231.22;;;26.92;67.53
74529;BME280;63009;52.584;5.932;2023-08-20T08:18:37;102235.47;;;26.95;66.77
74529;BME280;63009;52.584;5.932;2023-08-20T08:21:02;102225.22;;;26.80;66.41
74529;BME280;63009;52.584;5.932;2023-08-20T08:23:27;102228.44;;;27.10;67.42
74529;BME280;63009;52.584;5.932;2023-08-20T08:25:53;102230.84;;;27.21;68.42
74529;BME280;63009;52.584;5.932;2023-08-20T08:28:18;102240.34;;;27.17;67.22
74529;BME280;63009;52.584;5.932;2023-08-20T08:30:43;102241.19;;;27.26;65.37
74529;BME280;63009;52.584;5.932;2023-08-20T08:33:09;102246.28;;;27.29;66.20
74529;BME280;63009;52.584;5.932;2023-08-20T08:35:35;102241.47;;;27.06;65.26
74529;BME280;63009;52.584;5.932;2023-08-20T08:38:00;102244.09;;;27.24;66.24
74529;BME280;63009;52.584;5.932;2023-08-20T08:40:28;102253.13;;;27.33;64.98
74529;BME280;63009;52.584;5.932;2023-08-20T08:42:54;102242.78;;;27.44;64.09
74529;BME280;63009;52.584;5.932;2023-08-20T08:45:20;102253.63;;;27.36;61.58
74529;BME280;63009;52.584;5.932;2023-08-20T08:47:47;102249.00;;;27.29;61.18
74529;BME280;63009;52.584;5.932;2023-08-20T08:50:13;102244.66;;;27.52;64.54
74529;BME280;63009;52.584;5.932;2023-08-20T08:52:39;102246.19;;;27.55;63.23
74529;BME280;63009;52.584;5.932;2023-08-20T08:55:05;102256.00;;;27.39;60.84
74529;BME280;63009;52.584;5.932;2023-08-20T08:57:33;102254.81;;;27.42;62.56
74529;BME280;63009;52.584;5.932;2023-08-20T08:59:58;102265.03;;;27.56;61.86
74529;BME280;63009;52.584;5.932;2023-08-20T09:02:24;102258.69;;;27.90;61.66
74529;BME280;63009;52.584;5.932;2023-08-20T09:04:49;102251.69;;;27.71;61.07
74529;BME280;63009;52.584;5.932;2023-08-20T09:07:15;102262.38;;;27.64;60.31
74529;BME280;63009;52.584;5.932;2023-08-20T09:09:45;102253.56;;;27.78;61.62
74529;BME280;63009;52.584;5.932;2023-08-20T09:12:18;102258.16;;;27.94;61.82
74529;BME280;63009;52.584;5.932;2023-08-20T09:14:48;102244.25;;;27.89;61.23
74529;BME280;63009;52.584;5.932;2023-08-20T09:17:14;102248.31;;;27.93;59.58
74529;BME280;63009;52.584;5.932;2023-08-20T09:19:42;102272.44;;;28.13;59.49
74529;BME280;63009;52.584;5.932;2023-08-20T09:22:07;102268.72;;;27.89;59.29
74529;BME280;63009;52.584;5.932;2023-08-20T09:24:38;102255.97;;;27.90;59.74
74529;BME280;63009;52.584;5.932;2023-08-20T09:27:04;102262.25;;;28.15;60.63
74529;BME280;63009;52.584;5.932;2023-08-20T09:29:43;102250.00;;;28.10;59.73
74529;BME280;63009;52.584;5.932;2023-08-20T09:32:17;102273.81;;;28.17;60.23
74529;BME280;63009;52.584;5.932;2023-08-20T09:34:43;102263.94;;;28.56;61.29
74529;BME280;63009;52.584;5.932;2023-08-20T09:37:09;102272.25;;;28.55;60.32
74529;BME280;63009;52.584;5.932;2023-08-20T09:39:35;102262.22;;;28.55;56.92
74529;BME280;63009;52.584;5.932;2023-08-20T09:42:01;102257.31;;;28.51;56.49
74529;BME280;63009;52.584;5.932;2023-08-20T09:44:32;102263.94;;;28.56;58.39
74529;BME280;63009;52.584;5.932;2023-08-20T09:46:59;102277.72;;;28.47;57.22
74529;BME280;63009;52.584;5.932;2023-08-20T09:49:29;102271.91;;;28.74;58.66
74529;BME280;63009;52.584;5.932;2023-08-20T09:51:56;102278.38;;;28.73;58.27
74529;BME280;63009;52.584;5.932;2023-08-20T09:54:28;102258.47;;;28.64;55.17
74529;BME280;63009;52.584;5.932;2023-08-20T09:57:00;102269.34;;;28.73;57.91
74529;BME280;63009;52.584;5.932;2023-08-20T09:59:26;102265.44;;;28.75;58.32
74529;BME280;63009;52.584;5.932;2023-08-20T10:01:52;102268.78;;;29.02;57.82
74529;BME280;63009;52.584;5.932;2023-08-20T10:04:19;102273.88;;;28.96;57.25
74529;BME280;63009;52.584;5.932;2023-08-20T10:06:46;102278.84;;;28.93;55.62
74529;BME280;63009;52.584;5.932;2023-08-20T10:09:11;102281.53;;;28.85;55.66
74529;BME280;63009;52.584;5.932;2023-08-20T10:11:37;102283.28;;;28.78;56.30
74529;BME280;63009;52.584;5.932;2023-08-20T10:14:03;102277.25;;;29.07;57.99
74529;BME280;63009;52.584;5.932;2023-08-20T10:16:28;102276.34;;;29.22;55.25
74529;BME280;63009;52.584;5.932;2023-08-20T10:18:53;102274.97;;;28.87;56.29
74529;BME280;63009;52.584;5.932;2023-08-20T10:21:23;102273.03;;;29.04;57.57
74529;BME280;63009;52.584;5.932;2023-08-20T10:23:50;102263.38;;;28.69;56.06
74529;BME280;63009;52.584;5.932;2023-08-20T10:26:15;102275.09;;;28.94;57.74
74529;BME280;63009;52.584;5.932;2023-08-20T10:28:41;102276.13;;;28.93;57.71
74529;BME280;63009;52.584;5.932;2023-08-20T10:31:11;102276.44;;;28.98;56.83
74529;BME280;63009;52.584;5.932;2023-08-20T10:33:38;102277.47;;;28.81;58.18
74529;BME280;63009;52.584;5.932;2023-08-20T10:36:15;102275.84;;;28.39;56.83
74529;BME280;63009;52.584;5.932;2023-08-20T10:38:41;102284.00;;;28.15;58.06
74529;BME280;63009;52.584;5.932;2023-08-20T10:41:07;102273.31;;;27.89;59.63
74529;BME280;63009;52.584;5.932;2023-08-20T10:43:45;102280.50;;;27.56;60.00
74529;BME280;63009;52.584;5.932;2023-08-20T10:46:16;102282.34;;;27.55;62.62
74529;BME280;63009;52.584;5.932;2023-08-20T10:48:43;102283.84;;;27.33;63.52
74529;BME280;63009;52.584;5.932;2023-08-20T10:51:17;102289.28;;;27.41;63.20
74529;BME280;63009;52.584;5.932;2023-08-20T10:53:48;102280.50;;;27.47;62.94
74529;BME280;63009;52.584;5.932;2023-08-20T10:56:15;102282.88;;;27.50;62.75
74529;BME280;63009;52.584;5.932;2023-08-20T10:58:45;102288.59;;;27.31;64.03
74529;BME280;63009;52.584;5.932;2023-08-20T11:01:22;102291.47;;;27.38;64.70
74529;BME280;63009;52.584;5.932;2023-08-20T11:03:49;102286.09;;;27.46;64.50
74529;BME280;63009;52.584;5.932;2023-08-20T11:06:15;102288.16;;;27.60;64.00
74529;BME280;63009;52.584;5.932;2023-08-20T11:08:41;102286.59;;;27.49;63.15
74529;BME280;63009;52.584;5.932;2023-08-20T11:11:07;102284.56;;;27.51;62.38
74529;BME280;63009;52.584;5.932;2023-08-20T11:13:33;102289.47;;;27.48;63.61
74529;BME280;63009;52.584;5.932;2023-08-20T11:15:59;102291.94;;;27.67;63.68
74529;BME280;63009;52.584;5.932;2023-08-20T11:18:24;102290.06;;;27.68;63.17
74529;BME280;63009;52.584;5.932;2023-08-20T11:20:51;102282.94;;;27.67;63.61
74529;BME280;63009;52.584;5.932;2023-08-20T11:23:16;102277.84;;;27.64;62.56
74529;BME280;63009;52.584;5.932;2023-08-20T11:25:42;102270.69;;;27.71;63.68
74529;BME280;63009;52.584;5.932;2023-08-20T11:28:08;102275.16;;;27.88;64.12
74529;BME280;63009;52.584;5.932;2023-08-20T11:30:34;102254.94;;;27.83;61.50
74529;BME280;63009;52.584;5.932;2023-08-20T11:32:59;102262.78;;;28.02;61.67
74529;BME280;63009;52.584;5.932;2023-08-20T11:35:25;102270.06;;;28.09;62.65
74529;BME280;63009;52.584;5.932;2023-08-20T11:37:51;102266.00;;;28.22;60.32
74529;BME280;63009;52.584;5.932;2023-08-20T11:40:20;102272.28;;;28.22;63.48
74529;BME280;63009;52.584;5.932;2023-08-20T11:42:46;102273.81;;;28.41;60.91
74529;BME280;63009;52.584;5.932;2023-08-20T11:45:11;102261.06;;;28.50;62.52
74529;BME280;63009;52.584;5.932;2023-08-20T11:47:40;102265.31;;;28.60;61.38
74529;BME280;63009;52.584;5.932;2023-08-20T11:50:06;102265.94;;;28.71;60.98
74529;BME280;63009;52.584;5.932;2023-08-20T11:52:33;102270.19;;;28.73;60.24
74529;BME280;63009;52.584;5.932;2023-08-20T11:54:59;102269.63;;;29.02;61.26
74529;BME280;63009;52.584;5.932;2023-08-20T11:57:25;102268.66;;;28.71;60.23
74529;BME280;63009;52.584;5.932;2023-08-20T11:59:51;102257.03;;;28.85;59.39
74529;BME280;63009;52.584;5.932;2023-08-20T12:02:25;102273.94;;;28.72;59.19
74529;BME280;63009;52.584;5.932;2023-08-20T12:04:50;102263.94;;;28.56;58.42
74529;BME280;63009;52.584;5.932;2023-08-20T12:07:16;102265.78;;;28.64;60.00
74529;BME280;63009;52.584;5.932;2023-08-20T12:09:41;102258.50;;;28.40;59.83
74529;BME280;63009;52.584;5.932;2023-08-20T12:12:08;102256.97;;;28.62;60.13
74529;BME280;63009;52.584;5.932;2023-08-20T12:14:34;102253.41;;;28.53;59.85
74529;BME280;63009;52.584;5.932;2023-08-20T12:16:59;102242.31;;;28.63;59.81
74529;BME280;63009;52.584;5.932;2023-08-20T12:19:25;102256.06;;;28.78;59.34
74529;BME280;63009;52.584;5.932;2023-08-20T12:21:51;102257.22;;;28.83;57.64
74529;BME280;63009;52.584;5.932;2023-08-20T12:24:16;102265.59;;;28.90;56.92
74529;BME280;63009;52.584;5.932;2023-08-20T12:26:44;102263.44;;;29.16;61.13
74529;BME280;63009;52.584;5.932;2023-08-20T12:29:09;102265.53;;;29.37;58.58
74529;BME280;63009;52.584;5.932;2023-08-20T12:31:35;102257.91;;;28.93;55.95
74529;BME280;63009;52.584;5.932;2023-08-20T12:34:00;102250.31;;;29.20;56.01
74529;BME280;63009;52.584;5.932;2023-08-20T12:36:26;102258.88;;;29.40;55.31
74529;BME280;63009;52.584;5.932;2023-08-20T12:38:52;102264.94;;;29.58;57.43
74529;BME280;63009;52.584;5.932;2023-08-20T12:41:21;102262.44;;;29.40;55.57
74529;BME280;63009;52.584;5.932;2023-08-20T12:43:46;102265.13;;;29.57;57.45
74529;BME280;63009;52.584;5.932;2023-08-20T12:46:11;102264.59;;;29.61;54.00